createdAt,value
2019-03-09T00:04:46.815Z,100669.34
2019-03-09T00:07:31.384Z,100679.16
2019-03-09T00:10:03.588Z,100685.44
2019-03-09T00:12:55.773Z,100688.03
2019-03-09T00:15:40.528Z,100661.02
2019-03-09T00:18:25.976Z,100647.06
2019-03-09T00:21:10.605Z,100633.47
2019-03-09T00:30:25.742Z,100633.18
2019-03-09T00:33:11.326Z,100634.96
2019-03-09T00:35:55.541Z,100595.28
2019-03-09T00:38:39.318Z,100583.77
2019-03-09T00:41:24.604Z,100619.86
2019-03-09T00:47:16.177Z,100575.38
2019-03-09T00:50:01.204Z,100604.27
2019-03-09T00:52:46.618Z,100596.52
2019-03-09T00:55:31.988Z,100598.79
2019-03-09T00:58:16.660Z,100591.67
2019-03-09T01:01:00.732Z,100585.84
2019-03-09T01:03:45.050Z,100572.06
2019-03-09T01:06:29.015Z,100567.44
2019-03-09T01:11:56.744Z,100550.66
2019-03-09T01:14:41.515Z,100516.58
2019-03-09T01:17:26.634Z,100526.83
2019-03-09T01:20:12.625Z,100525.54
2019-03-09T01:22:57.467Z,100487.64
2019-03-09T01:25:41.772Z,100477.63
2019-03-09T01:28:27.092Z,100496.68
2019-03-09T01:31:12.667Z,100483.36
2019-03-09T01:33:56.717Z,100452.19
2019-03-09T01:36:41.419Z,100439.57
2019-03-09T01:39:26.175Z,100457.19
2019-03-09T01:42:10.742Z,100450.36
2019-03-09T01:44:55.440Z,100445.53
2019-03-09T01:47:41.210Z,100419.17
2019-03-09T01:50:26.144Z,100408.98
2019-03-09T01:53:11.195Z,100428.07
2019-03-09T01:55:56.872Z,100389.98
2019-03-09T02:01:18.135Z,100369.83
2019-03-09T02:04:20.528Z,100368.75
2019-03-09T02:09:52.468Z,100376.00
2019-03-09T02:12:36.919Z,100343.23
2019-03-09T02:15:19.750Z,100357.62
2019-03-09T02:18:04.399Z,100358.33
2019-03-09T02:20:48.083Z,100339.03
2019-03-09T02:26:22.338Z,100322.70
2019-03-09T02:29:06.535Z,100297.03
2019-03-09T02:31:51.039Z,100317.56
2019-03-09T02:34:36.386Z,100295.62
2019-03-09T02:37:19.971Z,100265.05
2019-03-09T02:40:24.405Z,100263.97
2019-03-09T02:43:09.107Z,100274.64
2019-03-09T02:45:53.254Z,100273.34
2019-03-09T02:48:37.982Z,100259.94
2019-03-09T02:54:10.547Z,100215.88
2019-03-09T02:56:54.511Z,100224.76
2019-03-09T03:02:42.510Z,100221.17
2019-03-09T03:05:26.747Z,100211.59
2019-03-09T03:08:10.569Z,100197.49
2019-03-09T03:10:54.517Z,100167.89
2019-03-09T03:13:39.864Z,100186.25
2019-03-09T03:16:24.783Z,100160.66
2019-03-09T03:19:09.555Z,100159.66
2019-03-09T03:21:55.215Z,100146.64
2019-03-09T03:24:40.017Z,100138.68
2019-03-09T03:27:24.903Z,100128.66
2019-03-09T03:30:09.752Z,100131.03
2019-03-09T03:32:55.324Z,100117.52
2019-03-09T03:35:39.791Z,100138.02
2019-03-09T03:38:25.275Z,100102.34
2019-03-09T03:41:09.148Z,100084.45
2019-03-09T03:43:53.864Z,100080.30
2019-03-09T03:46:37.771Z,100098.33
2019-03-09T03:49:21.527Z,100080.28
2019-03-09T03:52:07.021Z,100069.31
2019-03-09T03:54:52.073Z,100073.77
2019-03-09T03:57:37.882Z,100061.68
2019-03-09T04:00:22.459Z,100042.12
2019-03-09T04:03:06.229Z,100048.69
2019-03-09T04:05:38.373Z,100049.94
2019-03-09T04:08:23.468Z,100042.22
2019-03-09T04:11:12.480Z,100037.67
2019-03-09T04:13:56.279Z,100005.97
2019-03-09T04:16:39.763Z,100028.14
2019-03-09T04:19:23.717Z,100001.56
2019-03-09T04:22:08.249Z,100020.47
2019-03-09T04:24:54.101Z,99995.39
2019-03-09T04:27:39.677Z,99988.92
2019-03-09T04:30:12.047Z,100018.94
2019-03-09T04:32:56.537Z,99990.00
2019-03-09T04:35:42.319Z,99999.77
2019-03-09T04:38:26.577Z,99989.05
2019-03-09T04:41:11.024Z,99992.61
2019-03-09T04:43:55.537Z,100002.50
2019-03-09T04:46:41.190Z,100006.47
2019-03-09T04:49:25.410Z,100004.38
2019-03-09T04:52:09.995Z,100022.97
2019-03-09T04:54:53.910Z,100021.16
2019-03-09T04:57:38.507Z,100034.92
2019-03-09T05:00:22.749Z,100063.45
2019-03-09T05:03:07.996Z,100052.31
2019-03-09T05:05:52.530Z,100079.41
2019-03-09T05:08:43.250Z,100081.45
2019-03-09T05:11:28.951Z,100060.78
2019-03-09T05:14:20.983Z,100083.22
2019-03-09T05:17:05.980Z,100081.97
2019-03-09T05:19:50.067Z,100056.73
2019-03-09T05:22:35.446Z,100045.36
2019-03-09T05:25:19.812Z,100065.41
2019-03-09T05:27:52.412Z,100062.59
2019-03-09T05:30:36.971Z,100035.75
2019-03-09T05:33:22.671Z,100034.47
2019-03-09T05:36:06.602Z,100046.15
2019-03-09T05:41:38.465Z,100087.41
2019-03-09T05:44:22.757Z,100088.50
2019-03-09T05:46:55.404Z,100082.19
2019-03-09T05:49:40.041Z,100044.49
2019-03-09T05:52:34.594Z,100069.70
2019-03-09T05:55:19.819Z,100071.48
2019-03-09T05:58:03.834Z,100084.83
2019-03-09T06:00:49.419Z,100076.73
2019-03-09T06:03:34.655Z,100084.27
2019-03-09T06:06:20.008Z,100089.89
2019-03-09T06:09:05.799Z,100045.07
2019-03-09T06:11:50.638Z,100083.61
2019-03-09T06:14:35.923Z,100059.44
2019-03-09T06:17:08.177Z,100091.42
2019-03-09T06:19:52.312Z,100070.94
2019-03-09T06:25:23.554Z,100091.80
2019-03-09T06:28:08.260Z,100128.94
2019-03-09T06:30:52.682Z,100105.25
2019-03-09T06:33:38.136Z,100104.70
2019-03-09T06:36:43.084Z,100129.38
2019-03-09T06:39:31.764Z,100115.69
2019-03-09T06:42:36.798Z,100119.88
2019-03-09T06:45:21.255Z,100137.83
2019-03-09T06:48:05.922Z,100174.80
2019-03-09T06:50:49.642Z,100182.17
2019-03-09T06:53:34.071Z,100173.32
2019-03-09T06:56:18.078Z,100157.59
2019-03-09T06:59:02.430Z,100171.98
2019-03-09T07:01:34.696Z,100197.34
2019-03-09T07:04:18.644Z,100161.12
2019-03-09T07:07:02.444Z,100177.98
2019-03-09T07:09:47.433Z,100204.61
2019-03-09T07:15:20.870Z,100210.58
2019-03-09T07:18:12.008Z,100183.83
2019-03-09T07:20:56.730Z,100216.53
2019-03-09T07:23:41.436Z,100197.90
2019-03-09T07:26:25.640Z,100223.99
2019-03-09T07:29:09.478Z,100200.39
2019-03-09T07:31:54.087Z,100211.05
2019-03-09T07:34:37.920Z,100201.55
2019-03-09T07:37:22.001Z,100226.75
2019-03-09T07:40:06.626Z,100215.12
2019-03-09T07:42:51.401Z,100226.95
2019-03-09T07:45:36.288Z,100210.53
2019-03-09T07:48:20.594Z,100244.09
2019-03-09T07:50:53.253Z,100243.00
2019-03-09T07:53:37.933Z,100251.13
2019-03-09T07:56:22.484Z,100226.67
2019-03-09T07:59:06.811Z,100235.22
2019-03-09T08:01:51.463Z,100268.26
2019-03-09T08:04:36.137Z,100239.81
2019-03-09T08:07:20.622Z,100258.36
2019-03-09T08:10:04.734Z,100243.45
2019-03-09T08:15:51.654Z,100220.37
2019-03-09T08:18:36.162Z,100227.39
2019-03-09T08:21:20.797Z,100250.03
2019-03-09T08:24:05.203Z,100239.19
2019-03-09T08:26:49.314Z,100255.50
2019-03-09T08:29:33.561Z,100247.95
2019-03-09T08:32:06.068Z,100254.41
2019-03-09T08:34:38.865Z,100250.83
2019-03-09T08:37:36.463Z,100265.20
2019-03-09T08:40:21.251Z,100223.33
2019-03-09T08:43:07.400Z,100260.84
2019-03-09T08:45:51.808Z,100247.01
2019-03-09T08:48:36.082Z,100257.60
2019-03-09T08:51:20.625Z,100252.52
2019-03-09T08:54:05.196Z,100279.08
2019-03-09T08:56:48.945Z,100284.57
2019-03-09T08:59:33.455Z,100253.20
2019-03-09T09:02:17.609Z,100292.56
2019-03-09T09:04:50.452Z,100302.07
2019-03-09T09:10:09.968Z,100308.66
2019-03-09T09:12:54.172Z,100317.34
2019-03-09T09:15:38.234Z,100332.96
2019-03-09T09:18:22.550Z,100327.48
2019-03-09T09:21:07.242Z,100355.33
2019-03-09T09:23:51.448Z,100333.81
2019-03-09T09:26:36.631Z,100347.70
2019-03-09T09:29:20.581Z,100315.85
2019-03-09T09:35:09.423Z,100325.02
2019-03-09T09:37:54.658Z,100341.27
2019-03-09T09:40:39.984Z,100376.92
2019-03-09T09:43:25.232Z,100347.80
2019-03-09T09:49:16.527Z,100356.97
2019-03-09T09:52:00.764Z,100396.05
2019-03-09T09:54:45.376Z,100387.71
2019-03-09T09:57:30.110Z,100357.27
2019-03-09T10:00:15.416Z,100373.88
2019-03-09T10:02:59.498Z,100390.16
2019-03-09T10:05:43.524Z,100379.26
2019-03-09T10:08:29.355Z,100381.50
2019-03-09T10:11:13.189Z,100356.36
2019-03-09T10:13:57.334Z,100363.33
2019-03-09T10:16:41.137Z,100367.33
2019-03-09T10:19:25.629Z,100389.70
2019-03-09T10:22:10.490Z,100352.17
2019-03-09T10:24:55.048Z,100370.55
2019-03-09T10:27:39.581Z,100363.48
2019-03-09T10:30:16.328Z,100395.39
2019-03-09T10:33:01.762Z,100397.84
2019-03-09T10:35:46.440Z,100371.64
2019-03-09T10:38:30.983Z,100372.72
2019-03-09T10:41:15.772Z,100409.78
2019-03-09T10:43:59.654Z,100377.48
2019-03-09T10:46:43.986Z,100382.30
2019-03-09T10:49:28.183Z,100386.98
2019-03-09T10:52:12.174Z,100384.98
2019-03-09T10:54:56.301Z,100380.00
2019-03-09T10:57:40.720Z,100394.13
2019-03-09T11:00:29.874Z,100401.52
2019-03-09T11:03:14.323Z,100415.25
2019-03-09T11:05:59.015Z,100413.70
2019-03-09T11:08:43.332Z,100386.77
2019-03-09T11:11:27.623Z,100418.42
2019-03-09T11:14:12.390Z,100391.77
2019-03-09T11:16:45.577Z,100425.42
2019-03-09T11:19:30.632Z,100395.99
2019-03-09T11:22:16.073Z,100391.38
2019-03-09T11:25:03.761Z,100415.62
2019-03-09T11:27:48.018Z,100379.95
2019-03-09T11:30:33.983Z,100418.53
2019-03-09T11:33:18.934Z,100397.64
2019-03-09T11:36:03.354Z,100412.22
2019-03-09T11:38:48.076Z,100378.11
2019-03-09T11:44:38.255Z,100378.95
2019-03-09T11:47:23.039Z,100404.91
2019-03-09T11:50:08.759Z,100387.48
2019-03-09T11:52:53.214Z,100367.66
2019-03-09T11:55:38.088Z,100373.45
2019-03-09T11:58:22.477Z,100374.09
2019-03-09T12:04:14.381Z,100388.19
2019-03-09T12:06:47.823Z,100380.24
2019-03-09T12:09:32.433Z,100358.48
2019-03-09T12:12:23.299Z,100376.63
2019-03-09T12:15:08.205Z,100374.06
2019-03-09T12:17:52.283Z,100345.27
2019-03-09T12:20:36.388Z,100348.34
2019-03-09T12:23:22.154Z,100360.49
2019-03-09T12:26:07.043Z,100339.25
2019-03-09T12:28:51.262Z,100352.94
2019-03-09T12:31:35.530Z,100310.27
2019-03-09T12:34:20.599Z,100325.95
2019-03-09T12:37:04.855Z,100331.86
2019-03-09T12:39:48.617Z,100297.14
2019-03-09T12:42:31.881Z,100335.87
2019-03-09T12:45:03.867Z,100329.81
2019-03-09T12:48:02.291Z,100315.78
2019-03-09T12:50:46.924Z,100320.19
2019-03-09T12:53:32.605Z,100310.39
2019-03-09T12:56:16.798Z,100309.21
2019-03-09T12:58:49.013Z,100311.71
2019-03-09T13:01:34.875Z,100295.72
2019-03-09T13:04:20.355Z,100306.50
2019-03-09T13:06:55.785Z,100305.50
2019-03-09T13:09:43.792Z,100313.13
2019-03-09T13:12:27.737Z,100278.72
2019-03-09T13:15:12.208Z,100291.16
2019-03-09T13:17:56.072Z,100259.93
2019-03-09T13:20:41.397Z,100277.42
2019-03-09T13:23:25.180Z,100276.53
2019-03-09T13:26:09.901Z,100243.58
2019-03-09T13:28:55.441Z,100280.05
2019-03-09T13:31:40.595Z,100257.70
2019-03-09T13:34:25.591Z,100229.00
2019-03-09T13:37:09.391Z,100235.70
2019-03-09T13:39:54.281Z,100228.94
2019-03-09T13:42:38.096Z,100240.78
2019-03-09T13:45:22.115Z,100202.44
2019-03-09T13:48:06.337Z,100203.86
2019-03-09T13:50:50.972Z,100225.84
2019-03-09T13:53:35.921Z,100219.30
2019-03-09T13:56:24.057Z,100191.08
2019-03-09T13:59:08.294Z,100208.16
2019-03-09T14:01:52.046Z,100190.02
2019-03-09T14:04:36.487Z,100180.98
2019-03-09T14:07:20.939Z,100190.38
2019-03-09T14:10:04.971Z,100180.05
2019-03-09T14:12:49.495Z,100151.58
2019-03-09T14:15:34.204Z,100144.46
2019-03-09T14:18:20.324Z,100167.50
2019-03-09T14:21:06.594Z,100139.78
2019-03-09T14:23:50.446Z,100138.34
2019-03-09T14:26:34.438Z,100130.92
2019-03-09T14:29:19.250Z,100130.98
2019-03-09T14:32:07.298Z,100121.83
2019-03-09T14:34:52.778Z,100139.06
2019-03-09T14:37:36.998Z,100103.80
2019-03-09T14:40:21.390Z,100094.22
2019-03-09T14:43:06.186Z,100078.80
2019-03-09T14:45:50.130Z,100098.21
2019-03-09T14:48:34.038Z,100060.94
2019-03-09T14:51:18.219Z,100075.66
2019-03-09T14:53:50.748Z,100066.28
2019-03-09T14:56:35.162Z,100052.87
2019-03-09T14:59:20.422Z,100026.78
2019-03-09T15:02:05.944Z,100040.66
2019-03-09T15:04:50.469Z,100008.97
2019-03-09T15:07:35.780Z,100014.82
2019-03-09T15:10:20.424Z,100009.23
2019-03-09T15:13:06.344Z,99965.80
2019-03-09T15:15:51.167Z,99954.22
2019-03-09T15:18:35.243Z,99966.22
2019-03-09T15:21:20.842Z,99945.22
2019-03-09T15:24:04.899Z,99942.44
2019-03-09T15:26:49.279Z,99940.59
2019-03-09T15:29:34.206Z,99930.88
2019-03-09T15:32:18.662Z,99953.60
2019-03-09T15:35:03.869Z,99948.80
2019-03-09T15:37:49.707Z,99951.36
2019-03-09T15:43:24.380Z,99946.75
2019-03-09T15:46:07.952Z,99957.20
2019-03-09T15:48:54.724Z,99944.36
2019-03-09T15:51:38.697Z,99954.77
2019-03-09T15:54:23.021Z,99937.20
2019-03-09T15:56:55.204Z,99964.73
2019-03-09T15:59:39.160Z,99935.90
2019-03-09T16:02:23.616Z,99951.83
2019-03-09T16:05:08.983Z,99947.04
2019-03-09T16:07:54.202Z,99912.64
2019-03-09T16:10:25.301Z,99936.41
2019-03-09T16:13:17.243Z,99902.75
2019-03-09T16:16:00.990Z,99901.54
2019-03-09T16:18:33.513Z,99929.95
2019-03-09T16:21:19.083Z,99938.27
2019-03-09T16:24:04.748Z,99900.98
2019-03-09T16:26:49.445Z,99927.05
2019-03-09T16:29:21.730Z,99929.73
2019-03-09T16:32:07.050Z,99898.62
2019-03-09T16:34:51.466Z,99910.55
2019-03-09T16:37:23.732Z,99922.59
2019-03-09T16:40:09.511Z,99899.72
2019-03-09T16:42:41.745Z,99915.78
2019-03-09T16:45:31.505Z,99920.46
2019-03-09T16:54:53.419Z,99903.66
2019-03-09T17:10:00.689Z,99946.64
2019-03-09T17:15:53.473Z,99948.07
2019-03-09T17:21:25.956Z,100013.93
2019-03-09T17:24:10.697Z,100015.05
2019-03-09T17:26:56.224Z,100039.89
2019-03-09T17:29:28.448Z,100091.77
2019-03-09T17:32:13.921Z,100086.71
2019-03-09T17:37:45.096Z,100142.56
2019-03-09T17:40:31.271Z,100171.75
2019-03-09T17:43:17.064Z,100206.67
2019-03-09T17:46:02.502Z,100226.36
2019-03-09T17:48:47.562Z,100254.00
2019-03-09T17:54:18.478Z,100263.19
2019-03-09T17:57:02.638Z,100266.05
2019-03-09T17:59:47.191Z,100297.98
2019-03-09T18:02:31.871Z,100291.55
2019-03-09T18:05:19.457Z,100301.48
2019-03-09T18:08:03.288Z,100341.09
2019-03-09T18:10:50.044Z,100392.64
2019-03-09T18:13:33.803Z,100379.92
2019-03-09T18:16:04.970Z,100420.63
2019-03-09T18:21:36.822Z,100406.23
2019-03-09T18:24:09.047Z,100443.10
2019-03-09T18:27:00.109Z,100431.48
2019-03-09T18:29:47.006Z,100463.66
2019-03-09T18:32:32.347Z,100484.36
2019-03-09T18:35:18.069Z,100498.93
2019-03-09T18:38:02.325Z,100501.33
2019-03-09T18:40:49.751Z,100474.48
2019-03-09T18:43:34.872Z,100508.81
2019-03-09T18:46:19.372Z,100477.55
2019-03-09T18:49:03.949Z,100527.23
2019-03-09T18:51:48.406Z,100496.19
2019-03-09T18:54:20.686Z,100520.92
2019-03-09T18:57:06.366Z,100531.26
2019-03-09T18:59:52.393Z,100499.89
2019-03-09T19:02:36.540Z,100529.80
2019-03-09T19:05:25.155Z,100499.88
2019-03-09T19:08:14.610Z,100505.20
2019-03-09T19:11:04.271Z,100507.00
2019-03-09T19:16:52.195Z,100513.60
2019-03-09T19:19:37.291Z,100516.70
2019-03-09T19:22:25.111Z,100521.87
2019-03-09T19:25:12.743Z,100522.02
2019-03-09T19:27:56.780Z,100528.66
2019-03-09T19:30:43.802Z,100529.30
2019-03-09T19:33:28.803Z,100526.39
2019-03-09T19:39:00.237Z,100539.16
2019-03-09T19:41:44.898Z,100542.88
2019-03-09T19:44:28.482Z,100555.99
2019-03-09T19:47:00.641Z,100581.86
2019-03-09T19:49:44.618Z,100557.61
2019-03-09T19:52:28.947Z,100581.23
2019-03-09T19:57:59.913Z,100602.12
2019-03-09T20:03:30.825Z,100600.16
2019-03-09T20:06:15.340Z,100606.48
2019-03-09T20:08:59.818Z,100607.63
2019-03-09T20:14:12.092Z,100619.59
2019-03-09T20:16:55.604Z,100616.84
2019-03-09T20:19:42.977Z,100629.31
2019-03-09T20:22:26.450Z,100630.43
2019-03-09T20:25:10.833Z,100605.34
2019-03-09T20:27:54.587Z,100622.51
2019-03-09T20:30:39.524Z,100636.73
2019-03-09T20:36:11.744Z,100647.88
2019-03-09T20:38:56.465Z,100651.61
2019-03-09T20:41:42.147Z,100626.23
2019-03-09T20:44:14.389Z,100661.02
2019-03-09T20:46:58.928Z,100663.76
2019-03-09T20:52:31.850Z,100669.11
2019-03-09T20:55:16.538Z,100670.09
2019-03-09T20:57:50.461Z,100665.53
2019-03-09T21:00:35.290Z,100662.95
2019-03-09T21:03:19.264Z,100664.42
2019-03-09T21:06:03.752Z,100641.92
2019-03-09T21:08:47.634Z,100642.75
2019-03-09T21:11:32.223Z,100644.17
2019-03-09T21:14:17.867Z,100669.76
2019-03-09T21:17:02.389Z,100683.70
2019-03-09T21:19:46.468Z,100659.72
2019-03-09T21:22:30.238Z,100666.21
2019-03-09T21:25:14.508Z,100669.94
2019-03-09T21:27:59.476Z,100665.72
2019-03-09T21:33:31.872Z,100698.28
2019-03-09T21:39:03.003Z,100679.16
2019-03-09T21:41:48.684Z,100687.27
2019-03-09T21:44:33.325Z,100693.92
2019-03-09T21:47:17.751Z,100697.48
2019-03-09T21:50:02.175Z,100697.64
2019-03-09T21:52:47.039Z,100729.20
2019-03-09T21:55:31.111Z,100707.36
2019-03-09T21:58:15.152Z,100704.45
2019-03-09T22:00:59.685Z,100703.14
2019-03-09T22:03:31.923Z,100727.75
2019-03-09T22:06:16.468Z,100728.58
2019-03-09T22:09:00.757Z,100731.33
2019-03-09T22:11:46.251Z,100724.53
2019-03-09T22:14:18.483Z,100724.38
2019-03-09T22:17:03.047Z,100700.91
2019-03-09T22:22:22.862Z,100712.55
2019-03-09T22:24:55.231Z,100715.30
2019-03-09T22:27:27.783Z,100716.77
2019-03-09T22:30:12.834Z,100717.23
2019-03-09T22:32:56.721Z,100687.78
2019-03-09T22:38:28.042Z,100720.48
2019-03-09T22:41:12.875Z,100727.14
2019-03-09T22:47:11.116Z,100732.64
2019-03-09T22:49:51.897Z,100726.32
2019-03-09T22:52:37.860Z,100707.38
2019-03-09T22:55:22.540Z,100738.80
2019-03-09T22:58:07.060Z,100751.27
2019-03-09T23:00:52.104Z,100722.42
2019-03-09T23:03:37.343Z,100750.47
2019-03-09T23:11:36.490Z,100725.99
2019-03-09T23:14:20.900Z,100724.05
2019-03-09T23:19:34.866Z,100773.13
2019-03-09T23:22:19.823Z,100761.31
2019-03-09T23:25:03.852Z,100768.13
2019-03-09T23:28:29.942Z,100770.71
2019-03-09T23:31:14.199Z,100747.85
2019-03-09T23:33:58.705Z,100758.87
2019-03-09T23:36:42.900Z,100744.12
2019-03-09T23:39:26.425Z,100758.89
2019-03-09T23:42:10.349Z,100740.42
2019-03-09T23:44:54.628Z,100753.69
2019-03-09T23:47:39.054Z,100773.96
2019-03-09T23:50:23.452Z,100773.63
2019-03-09T23:53:08.191Z,100752.08
2019-03-09T23:55:53.526Z,100748.52
2019-03-09T23:58:37.919Z,100744.97
